Corum, Turkey
Current Conditions -  °F | °C
As of 11:20 AM on Wednesday 26 Nov 2014 (Local Time) from LTAP Reporting Station
Broken Clouds Broken Clouds  
Wind Chill: 40°   Ceiling: 3300
Heat Index: 45°   Visibility: 6mi
Dew Point: 37°   Wind: 9mph
Humidity: 76%   Direction: 40°NE
Pressure: 29.91"   Gusts: NA
Location:  40.56°N, 34.96°E
Report Text: LTAP 260820Z 04008KT 9999 FEW021 BKN033 BKN080 07/03 Q1013 NOSIG
Loading
Personal Weather Stations






























Interactive Weather Map New forecast layout! Learn more

10-Day Weather Forecast

Advertisements
Track Severe Weather on mobile